createdAt,value
2023-01-13T00:00:00.453Z,100.00
2023-01-13T00:02:29.016Z,100.00
2023-01-13T00:04:59.140Z,100.00
2023-01-13T00:07:27.882Z,100.00
2023-01-13T00:09:56.139Z,100.00
2023-01-13T00:12:24.472Z,100.00
2023-01-13T00:14:53.132Z,100.00
2023-01-13T00:17:21.442Z,100.00
2023-01-13T00:19:50.178Z,100.00
2023-01-13T00:22:23.337Z,100.00
2023-01-13T00:24:51.969Z,100.00
2023-01-13T00:27:21.359Z,100.00
2023-01-13T00:29:49.822Z,100.00
2023-01-13T00:32:19.550Z,100.00
2023-01-13T00:34:48.184Z,100.00
2023-01-13T00:37:16.310Z,100.00
2023-01-13T00:39:45.995Z,100.00
2023-01-13T00:42:33.474Z,100.00
2023-01-13T00:45:01.881Z,100.00
2023-01-13T00:47:30.058Z,100.00
2023-01-13T00:49:58.375Z,100.00
2023-01-13T00:52:27.271Z,100.00
2023-01-13T00:54:57.265Z,100.00
2023-01-13T00:57:25.649Z,100.00
2023-01-13T00:59:53.929Z,100.00
2023-01-13T01:02:22.189Z,100.00
2023-01-13T01:04:50.829Z,100.00
2023-01-13T01:07:20.464Z,100.00
2023-01-13T01:09:49.868Z,100.00
2023-01-13T01:12:21.133Z,100.00
2023-01-13T01:14:49.732Z,100.00
2023-01-13T01:17:18.297Z,100.00
2023-01-13T01:19:46.847Z,100.00
2023-01-13T01:22:16.289Z,100.00
2023-01-13T01:24:45.192Z,100.00
2023-01-13T01:27:13.855Z,100.00
2023-01-13T01:29:45.025Z,100.00
2023-01-13T01:32:13.287Z,100.00
2023-01-13T01:34:44.283Z,100.00
2023-01-13T01:37:12.382Z,100.00
2023-01-13T01:39:40.917Z,100.00
2023-01-13T01:42:33.000Z,100.00
2023-01-13T01:45:06.700Z,100.00
2023-01-13T01:47:35.909Z,100.00
2023-01-13T01:50:05.502Z,100.00
2023-01-13T01:52:37.418Z,100.00
2023-01-13T01:55:08.280Z,100.00
2023-01-13T01:57:43.139Z,100.00
2023-01-13T02:00:14.757Z,100.00
2023-01-13T02:02:48.386Z,100.00
2023-01-13T02:05:17.052Z,100.00
2023-01-13T02:07:47.467Z,100.00
2023-01-13T02:10:17.425Z,100.00
2023-01-13T02:12:46.791Z,100.00
2023-01-13T02:15:22.867Z,100.00
2023-01-13T02:18:05.304Z,100.00
2023-01-13T02:20:53.795Z,100.00
2023-01-13T02:24:16.438Z,100.00
2023-01-13T02:27:21.142Z,100.00
2023-01-13T02:30:16.206Z,100.00
2023-01-13T02:32:52.633Z,100.00
2023-01-13T02:35:25.543Z,100.00
2023-01-13T02:37:54.952Z,100.00
2023-01-13T02:40:27.145Z,100.00
2023-01-13T02:43:14.644Z,100.00
2023-01-13T02:45:49.434Z,100.00
2023-01-13T02:48:19.404Z,100.00
2023-01-13T02:50:51.739Z,100.00
2023-01-13T02:53:23.676Z,100.00
2023-01-13T02:55:54.606Z,100.00
2023-01-13T02:58:26.035Z,100.00
2023-01-13T03:00:56.086Z,100.00
2023-01-13T03:03:25.512Z,100.00
2023-01-13T03:05:55.601Z,100.00
2023-01-13T03:08:33.439Z,100.00
2023-01-13T03:11:07.640Z,100.00
2023-01-13T03:13:47.565Z,100.00
2023-01-13T03:16:24.451Z,100.00
2023-01-13T03:18:59.948Z,100.00
2023-01-13T03:21:31.452Z,100.00
2023-01-13T03:24:03.755Z,100.00
2023-01-13T03:26:35.867Z,100.00
2023-01-13T03:29:10.521Z,100.00
2023-01-13T03:31:50.548Z,100.00
2023-01-13T03:34:23.090Z,100.00
2023-01-13T03:36:54.141Z,100.00
2023-01-13T03:39:27.562Z,100.00
2023-01-13T03:42:00.178Z,100.00
2023-01-13T03:44:32.837Z,100.00
2023-01-13T03:47:10.151Z,100.00
2023-01-13T03:49:42.588Z,100.00
2023-01-13T03:52:13.965Z,100.00
2023-01-13T03:54:48.071Z,100.00
2023-01-13T03:57:17.461Z,100.00
2023-01-13T03:59:48.167Z,100.00
2023-01-13T04:02:22.480Z,100.00
2023-01-13T04:04:55.857Z,100.00
2023-01-13T04:07:30.412Z,100.00
2023-01-13T04:10:02.112Z,100.00
2023-01-13T04:12:52.221Z,100.00
2023-01-13T04:15:22.836Z,100.00
2023-01-13T04:17:54.831Z,100.00
2023-01-13T04:20:24.208Z,100.00
2023-01-13T04:22:52.383Z,100.00
2023-01-13T04:25:20.904Z,100.00
2023-01-13T04:27:49.265Z,100.00
2023-01-13T04:30:17.960Z,100.00
2023-01-13T04:32:48.273Z,100.00
2023-01-13T04:35:20.486Z,100.00
2023-01-13T04:37:49.141Z,100.00
2023-01-13T04:40:17.728Z,100.00
2023-01-13T04:42:47.061Z,100.00
2023-01-13T04:45:16.067Z,100.00
2023-01-13T04:47:44.993Z,100.00
2023-01-13T04:50:13.716Z,100.00
2023-01-13T04:52:43.352Z,100.00
2023-01-13T04:55:12.418Z,100.00
2023-01-13T04:57:42.622Z,100.00
2023-01-13T05:00:13.326Z,100.00
2023-01-13T05:02:42.370Z,100.00
2023-01-13T05:05:11.161Z,100.00
2023-01-13T05:07:39.455Z,100.00
2023-01-13T05:10:11.372Z,100.00
2023-01-13T05:12:59.043Z,100.00
2023-01-13T05:15:47.330Z,100.00
2023-01-13T05:18:15.668Z,100.00
2023-01-13T05:20:43.894Z,100.00
2023-01-13T05:23:29.886Z,100.00
2023-01-13T05:26:03.389Z,100.00
2023-01-13T05:28:33.472Z,100.00
2023-01-13T05:31:02.065Z,100.00
2023-01-13T05:33:30.793Z,100.00
2023-01-13T05:36:04.481Z,100.00
2023-01-13T05:38:35.268Z,100.00
2023-01-13T05:41:22.854Z,100.00
2023-01-13T05:44:02.973Z,100.00
2023-01-13T05:46:31.708Z,100.00
2023-01-13T05:49:01.658Z,100.00
2023-01-13T05:51:29.718Z,100.00
2023-01-13T05:53:59.369Z,100.00
2023-01-13T05:56:30.399Z,100.00
2023-01-13T05:58:58.590Z,100.00
2023-01-13T06:01:26.976Z,100.00
2023-01-13T06:03:54.962Z,100.00
2023-01-13T06:06:23.607Z,100.00
2023-01-13T06:08:51.670Z,100.00
2023-01-13T06:11:19.596Z,100.00
2023-01-13T06:13:50.424Z,100.00
2023-01-13T06:16:18.861Z,100.00
2023-01-13T06:18:46.923Z,100.00
2023-01-13T06:21:15.253Z,100.00
2023-01-13T06:23:43.206Z,100.00
2023-01-13T06:26:16.610Z,100.00
2023-01-13T06:28:45.446Z,100.00
2023-01-13T06:31:16.495Z,100.00
2023-01-13T06:33:46.548Z,100.00
2023-01-13T06:36:17.087Z,100.00
2023-01-13T06:38:47.613Z,100.00
2023-01-13T06:41:16.057Z,100.00
2023-01-13T06:43:43.025Z,100.00
2023-01-13T06:46:11.223Z,100.00
2023-01-13T06:48:41.054Z,100.00
2023-01-13T06:51:09.851Z,100.00
2023-01-13T06:53:38.758Z,100.00
2023-01-13T06:56:08.127Z,100.00
2023-01-13T06:58:36.925Z,100.00
2023-01-13T07:01:05.373Z,100.00
2023-01-13T07:03:33.679Z,100.00
2023-01-13T07:06:03.380Z,100.00
2023-01-13T07:08:31.734Z,100.00
2023-01-13T07:11:00.239Z,100.00
2023-01-13T07:13:45.658Z,100.00
2023-01-13T07:16:14.107Z,100.00
2023-01-13T07:18:42.773Z,100.00
2023-01-13T07:21:18.818Z,100.00
2023-01-13T07:23:47.635Z,100.00
2023-01-13T07:26:16.247Z,100.00
2023-01-13T07:28:46.389Z,100.00
2023-01-13T07:31:16.416Z,100.00
2023-01-13T07:33:45.003Z,100.00
2023-01-13T07:36:21.442Z,100.00
2023-01-13T07:38:49.762Z,100.00
2023-01-13T07:41:35.150Z,100.00
2023-01-13T07:44:06.264Z,100.00
2023-01-13T07:46:37.707Z,100.00
2023-01-13T07:49:17.084Z,100.00
2023-01-13T07:51:58.953Z,100.00
2023-01-13T07:54:39.651Z,100.00
2023-01-13T07:57:10.950Z,100.00
2023-01-13T07:59:40.257Z,100.00
2023-01-13T08:02:13.630Z,100.00
2023-01-13T08:04:42.129Z,100.00
2023-01-13T08:07:12.009Z,100.00
2023-01-13T08:09:40.408Z,100.00
2023-01-13T08:12:27.908Z,100.00
2023-01-13T08:14:56.355Z,100.00
2023-01-13T08:17:28.676Z,100.00
2023-01-13T08:19:59.497Z,100.00
2023-01-13T08:22:31.299Z,100.00
2023-01-13T08:25:00.277Z,100.00
2023-01-13T08:27:28.318Z,100.00
2023-01-13T08:29:56.434Z,100.00
2023-01-13T08:32:24.484Z,100.00
2023-01-13T08:34:52.719Z,100.00
2023-01-13T08:37:21.097Z,100.00
2023-01-13T08:39:51.279Z,100.00
2023-01-13T08:42:20.140Z,100.00
2023-01-13T08:44:48.739Z,99.39
2023-01-13T08:47:20.257Z,100.00
2023-01-13T08:49:48.862Z,100.00
2023-01-13T08:52:18.008Z,100.00
2023-01-13T08:54:47.187Z,100.00
2023-01-13T08:57:19.597Z,100.00
2023-01-13T08:59:48.595Z,100.00
2023-01-13T09:02:18.811Z,100.00
2023-01-13T09:04:50.729Z,100.00
2023-01-13T09:07:19.567Z,100.00
2023-01-13T09:09:47.754Z,93.69
2023-01-13T09:12:36.219Z,91.32
2023-01-13T09:15:06.563Z,79.00
2023-01-13T09:17:35.355Z,79.90
2023-01-13T09:20:03.521Z,88.31
2023-01-13T09:22:32.030Z,100.00
2023-01-13T09:25:04.478Z,100.00
2023-01-13T09:27:34.026Z,100.00
2023-01-13T09:30:02.062Z,100.00
2023-01-13T09:32:30.253Z,100.00
2023-01-13T09:35:02.725Z,100.00
2023-01-13T09:37:34.092Z,100.00
2023-01-13T09:40:03.513Z,100.00
2023-01-13T09:43:01.548Z,100.00
2023-01-13T09:45:36.156Z,100.00
2023-01-13T09:48:08.331Z,100.00
2023-01-13T09:51:09.706Z,100.00
2023-01-13T09:53:41.609Z,100.00
2023-01-13T09:56:11.064Z,100.00
2023-01-13T09:58:40.884Z,100.00
2023-01-13T10:01:19.409Z,100.00
2023-01-13T10:03:48.947Z,100.00
2023-01-13T10:06:23.272Z,100.00
2023-01-13T10:08:52.524Z,100.00
2023-01-13T10:11:39.627Z,100.00
2023-01-13T10:14:17.491Z,100.00
2023-01-13T10:16:49.648Z,100.00
2023-01-13T10:19:20.044Z,100.00
2023-01-13T10:22:18.108Z,100.00
2023-01-13T10:25:20.685Z,100.00
2023-01-13T10:27:54.281Z,100.00
2023-01-13T10:30:31.554Z,100.00
2023-01-13T10:33:01.791Z,100.00
2023-01-13T10:35:55.922Z,100.00
2023-01-13T10:38:26.013Z,100.00
2023-01-13T10:40:55.859Z,100.00
2023-01-13T10:43:25.225Z,100.00
2023-01-13T10:46:04.590Z,100.00
2023-01-13T10:48:39.643Z,100.00
2023-01-13T10:51:21.834Z,100.00
2023-01-13T10:53:56.882Z,89.82
2023-01-13T10:56:27.188Z,89.21
2023-01-13T10:59:11.077Z,100.00
2023-01-13T11:01:43.235Z,100.00
2023-01-13T11:04:31.062Z,100.00
2023-01-13T11:07:03.033Z,100.00
2023-01-13T11:09:33.681Z,100.00
2023-01-13T11:12:03.281Z,100.00
2023-01-13T11:14:39.670Z,100.00
2023-01-13T11:17:18.259Z,100.00
2023-01-13T11:19:54.680Z,100.00
2023-01-13T11:22:25.952Z,90.41
2023-01-13T11:24:56.661Z,100.00
2023-01-13T11:27:33.978Z,98.97
2023-01-13T11:30:10.259Z,100.00
2023-01-13T11:32:45.571Z,89.51
2023-01-13T11:35:19.077Z,100.00
2023-01-13T11:37:50.608Z,100.00
2023-01-13T11:40:25.419Z,91.93
2023-01-13T11:42:57.610Z,91.42
2023-01-13T11:45:32.435Z,84.75
2023-01-13T11:48:03.209Z,81.70
2023-01-13T11:50:35.950Z,89.74
2023-01-13T11:53:14.150Z,76.08
2023-01-13T11:55:51.289Z,67.35
2023-01-13T11:58:33.818Z,85.50
2023-01-13T12:01:33.033Z,91.74
2023-01-13T12:04:15.295Z,91.38
2023-01-13T12:06:44.666Z,90.33
2023-01-13T12:09:25.955Z,72.06
2023-01-13T12:12:23.353Z,64.21
2023-01-13T12:15:30.454Z,66.32
2023-01-13T12:18:22.552Z,59.72
2023-01-13T12:21:35.593Z,55.20
2023-01-13T12:24:14.934Z,58.99
2023-01-13T12:26:46.396Z,55.99
2023-01-13T12:29:19.424Z,52.83
2023-01-13T12:31:49.947Z,55.12
2023-01-13T12:34:38.687Z,55.75
2023-01-13T12:37:14.092Z,50.35
2023-01-13T12:39:52.747Z,48.10
2023-01-13T12:43:09.563Z,51.64
2023-01-13T12:45:42.642Z,46.47
2023-01-13T12:48:49.162Z,51.29
2023-01-13T12:51:29.020Z,55.71
2023-01-13T12:53:57.713Z,54.31
2023-01-13T12:56:42.278Z,54.69
2023-01-13T12:59:35.138Z,50.40
2023-01-13T13:02:34.734Z,52.31
2023-01-13T13:05:50.084Z,47.71
2023-01-13T13:08:39.619Z,44.83
2023-01-13T13:11:41.308Z,42.49
2023-01-13T13:14:35.887Z,46.21
2023-01-13T13:17:14.482Z,45.16
2023-01-13T13:20:03.344Z,46.03
2023-01-13T13:22:45.883Z,43.87
2023-01-13T13:25:31.065Z,45.57
2023-01-13T13:28:20.079Z,44.33
2023-01-13T13:31:09.007Z,42.40
2023-01-13T13:33:57.685Z,42.88
2023-01-13T13:36:44.238Z,44.13
2023-01-13T13:39:39.714Z,45.34
2023-01-13T13:42:32.085Z,43.99
2023-01-13T13:45:36.621Z,42.29
2023-01-13T13:52:09.994Z,43.89
2023-01-13T13:54:44.444Z,42.58
2023-01-13T13:57:21.067Z,45.83
2023-01-13T13:59:53.144Z,46.42
2023-01-13T14:02:25.625Z,47.83
2023-01-13T14:05:08.488Z,48.48
2023-01-13T14:07:45.489Z,48.27
2023-01-13T14:10:27.749Z,48.14
2023-01-13T14:12:55.963Z,50.62
2023-01-13T14:15:26.612Z,54.35
2023-01-13T14:18:02.623Z,53.87
2023-01-13T14:20:36.282Z,53.84
2023-01-13T14:23:09.110Z,54.32
2023-01-13T14:25:40.107Z,53.45
2023-01-13T14:28:25.760Z,54.20
2023-01-13T14:30:54.772Z,56.27
2023-01-13T14:33:26.623Z,51.76
2023-01-13T14:36:24.988Z,50.85
2023-01-13T14:39:26.645Z,50.26
2023-01-13T14:41:56.053Z,50.36
2023-01-13T14:44:28.124Z,49.95
2023-01-13T14:46:57.373Z,53.31
2023-01-13T14:49:30.075Z,52.26
2023-01-13T14:52:08.012Z,53.97
2023-01-13T14:54:46.777Z,55.65
2023-01-13T14:57:17.810Z,54.41
2023-01-13T14:59:51.901Z,53.70
2023-01-13T15:02:45.865Z,56.43
2023-01-13T15:05:49.451Z,56.05
2023-01-13T15:08:28.100Z,56.07
2023-01-13T15:11:00.199Z,56.62
2023-01-13T15:13:36.134Z,57.33
2023-01-13T15:16:10.634Z,56.64
2023-01-13T15:18:41.297Z,56.27
2023-01-13T15:21:12.009Z,59.12
2023-01-13T15:23:47.213Z,57.25
2023-01-13T15:26:24.684Z,55.94
2023-01-13T15:28:54.029Z,59.95
2023-01-13T15:31:23.643Z,55.09
2023-01-13T15:33:52.444Z,55.99
2023-01-13T15:36:25.297Z,59.68
2023-01-13T15:38:55.241Z,56.94
2023-01-13T15:41:42.905Z,52.86
2023-01-13T15:44:29.694Z,57.71
2023-01-13T15:46:59.208Z,55.85
2023-01-13T15:49:35.671Z,56.42
2023-01-13T15:52:19.581Z,55.99
2023-01-13T15:55:02.795Z,58.42
2023-01-13T15:57:33.209Z,59.42
2023-01-13T16:00:04.428Z,54.44
2023-01-13T16:02:35.195Z,58.89
2023-01-13T16:05:03.816Z,55.84
2023-01-13T16:07:35.331Z,56.97
2023-01-13T16:10:13.904Z,56.55
2023-01-13T16:12:42.308Z,62.28
2023-01-13T16:15:12.389Z,61.58
2023-01-13T16:17:46.963Z,61.94
2023-01-13T16:20:16.471Z,60.60
2023-01-13T16:22:47.833Z,65.29
2023-01-13T16:25:20.779Z,59.77
2023-01-13T16:27:49.461Z,62.92
2023-01-13T16:30:46.483Z,73.36
2023-01-13T16:33:33.558Z,66.53
2023-01-13T16:36:12.102Z,80.04
2023-01-13T16:38:43.375Z,93.85
2023-01-13T16:41:12.979Z,95.98
2023-01-13T16:43:43.464Z,100.00
2023-01-13T16:46:25.943Z,100.00
2023-01-13T16:48:59.259Z,100.00
2023-01-13T16:51:27.778Z,100.00
2023-01-13T16:53:56.265Z,100.00
2023-01-13T16:56:27.773Z,100.00
2023-01-13T16:58:57.750Z,100.00
2023-01-13T17:01:27.177Z,100.00
2023-01-13T17:03:55.813Z,100.00
2023-01-13T17:06:26.489Z,100.00
2023-01-13T17:08:54.618Z,100.00
2023-01-13T17:11:22.900Z,100.00
2023-01-13T17:13:52.457Z,100.00
2023-01-13T17:16:22.707Z,100.00
2023-01-13T17:18:51.062Z,100.00
2023-01-13T17:21:19.645Z,100.00
2023-01-13T17:23:47.874Z,100.00
2023-01-13T17:26:32.353Z,100.00
2023-01-13T17:29:03.336Z,100.00
2023-01-13T17:31:32.028Z,100.00
2023-01-13T17:34:00.187Z,100.00
2023-01-13T17:36:28.126Z,100.00
2023-01-13T17:38:57.118Z,100.00
2023-01-13T17:41:26.485Z,100.00
2023-01-13T17:43:56.169Z,100.00
2023-01-13T17:46:25.662Z,100.00
2023-01-13T17:48:54.323Z,100.00
2023-01-13T17:51:25.146Z,100.00
2023-01-13T17:53:54.871Z,100.00
2023-01-13T17:56:26.673Z,100.00
2023-01-13T17:58:59.024Z,100.00
2023-01-13T18:01:32.891Z,100.00
2023-01-13T18:04:02.136Z,100.00
2023-01-13T18:06:38.791Z,100.00
2023-01-13T18:09:07.038Z,100.00
2023-01-13T18:11:35.403Z,100.00
2023-01-13T18:14:03.473Z,100.00
2023-01-13T18:16:35.553Z,100.00
2023-01-13T18:19:17.732Z,100.00
2023-01-13T18:22:06.402Z,100.00
2023-01-13T18:24:52.421Z,100.00
2023-01-13T18:27:24.445Z,100.00
2023-01-13T18:29:54.544Z,100.00
2023-01-13T18:32:26.771Z,100.00
2023-01-13T18:35:05.126Z,100.00
2023-01-13T18:37:35.985Z,100.00
2023-01-13T18:40:05.331Z,100.00
2023-01-13T18:42:50.898Z,100.00
2023-01-13T18:45:20.348Z,97.98
2023-01-13T18:47:51.883Z,94.69
2023-01-13T18:50:21.607Z,98.84
2023-01-13T18:52:54.066Z,100.00
2023-01-13T18:55:22.702Z,100.00
2023-01-13T18:57:51.007Z,100.00
2023-01-13T19:00:21.959Z,100.00
2023-01-13T19:05:35.120Z,100.00
2023-01-13T19:08:04.605Z,100.00
2023-01-13T19:10:33.257Z,96.98
2023-01-13T19:13:02.849Z,100.00
2023-01-13T19:15:31.723Z,100.00
2023-01-13T19:18:03.414Z,100.00
2023-01-13T19:20:31.730Z,92.42
2023-01-13T19:23:00.201Z,87.01
2023-01-13T19:25:30.421Z,79.65
2023-01-13T19:27:59.466Z,95.36
2023-01-13T19:30:28.464Z,100.00
2023-01-13T19:32:58.021Z,99.42
2023-01-13T19:35:28.419Z,100.00
2023-01-13T19:37:57.643Z,87.39
2023-01-13T19:40:29.715Z,98.58
2023-01-13T19:43:15.695Z,100.00
2023-01-13T19:45:45.305Z,94.38
2023-01-13T19:48:16.236Z,89.02
2023-01-13T19:50:46.091Z,84.16
2023-01-13T19:53:17.961Z,92.33
2023-01-13T19:55:48.524Z,89.56
2023-01-13T19:58:19.106Z,82.93
2023-01-13T20:00:48.656Z,94.19
2023-01-13T20:03:17.980Z,98.77
2023-01-13T20:05:49.317Z,93.05
2023-01-13T20:08:18.455Z,91.48
2023-01-13T20:10:47.231Z,97.00
2023-01-13T20:13:15.997Z,95.75
2023-01-13T20:15:46.791Z,96.77
2023-01-13T20:18:15.250Z,99.83
2023-01-13T20:20:43.992Z,92.61
2023-01-13T20:23:14.515Z,79.47
2023-01-13T20:25:47.756Z,87.59
2023-01-13T20:28:17.322Z,91.47
2023-01-13T20:30:46.330Z,100.00
2023-01-13T20:33:15.453Z,74.89
2023-01-13T20:35:45.492Z,89.60
2023-01-13T20:38:16.579Z,82.46
2023-01-13T20:40:44.914Z,84.49
2023-01-13T20:43:14.308Z,93.57
2023-01-13T20:45:45.489Z,100.00
2023-01-13T20:48:19.879Z,96.94
2023-01-13T20:50:54.412Z,100.00
2023-01-13T20:53:28.887Z,100.00
2023-01-13T20:56:02.272Z,89.90
2023-01-13T20:58:30.707Z,85.96
2023-01-13T21:01:02.701Z,97.34
2023-01-13T21:03:33.731Z,90.93
2023-01-13T21:06:02.224Z,89.80
2023-01-13T21:08:32.719Z,86.35
2023-01-13T21:11:08.307Z,97.63
2023-01-13T21:13:53.988Z,87.10
2023-01-13T21:16:27.002Z,91.42
2023-01-13T21:19:18.943Z,88.63
2023-01-13T21:21:47.077Z,98.90
2023-01-13T21:24:18.235Z,100.00
2023-01-13T21:26:53.595Z,100.00
2023-01-13T21:29:34.553Z,92.91
2023-01-13T21:32:11.416Z,100.00
2023-01-13T21:34:40.179Z,100.00
2023-01-13T21:37:08.973Z,100.00
2023-01-13T21:39:44.654Z,100.00
2023-01-13T21:42:33.487Z,100.00
2023-01-13T21:45:18.889Z,82.37
2023-01-13T21:47:51.816Z,92.34
2023-01-13T21:50:22.846Z,76.07
2023-01-13T21:52:53.061Z,94.90
2023-01-13T21:55:28.821Z,100.00
2023-01-13T21:57:58.964Z,91.22
2023-01-13T22:00:29.556Z,100.00
2023-01-13T22:03:00.522Z,93.09
2023-01-13T22:05:28.646Z,100.00
2023-01-13T22:07:57.192Z,100.00
2023-01-13T22:10:30.116Z,100.00
2023-01-13T22:13:20.596Z,99.97
2023-01-13T22:15:51.280Z,100.00
2023-01-13T22:18:19.718Z,100.00
2023-01-13T22:20:49.571Z,100.00
2023-01-13T22:23:18.226Z,100.00
2023-01-13T22:25:48.018Z,100.00
2023-01-13T22:28:23.992Z,100.00
2023-01-13T22:30:53.683Z,100.00
2023-01-13T22:33:22.678Z,100.00
2023-01-13T22:35:57.003Z,100.00
2023-01-13T22:38:27.808Z,100.00
2023-01-13T22:41:02.007Z,100.00
2023-01-13T22:43:31.183Z,100.00
2023-01-13T22:45:59.793Z,100.00
2023-01-13T22:48:28.262Z,100.00
2023-01-13T22:50:56.435Z,100.00
2023-01-13T22:53:25.295Z,100.00
2023-01-13T22:55:57.377Z,100.00
2023-01-13T22:58:27.981Z,100.00
2023-01-13T23:00:56.783Z,100.00
2023-01-13T23:03:25.240Z,100.00
2023-01-13T23:05:58.701Z,100.00
2023-01-13T23:08:26.948Z,100.00
2023-01-13T23:11:02.184Z,100.00
2023-01-13T23:13:33.163Z,97.37
2023-01-13T23:16:03.388Z,100.00
2023-01-13T23:18:31.525Z,100.00
2023-01-13T23:21:04.039Z,100.00
2023-01-13T23:23:32.830Z,100.00
2023-01-13T23:26:01.152Z,100.00
2023-01-13T23:28:29.722Z,100.00
2023-01-13T23:30:59.706Z,100.00
2023-01-13T23:33:28.313Z,100.00
2023-01-13T23:35:57.425Z,100.00
2023-01-13T23:38:26.197Z,100.00
2023-01-13T23:40:54.895Z,100.00
2023-01-13T23:43:23.515Z,100.00
2023-01-13T23:45:51.632Z,100.00
2023-01-13T23:48:21.635Z,100.00
2023-01-13T23:50:59.304Z,100.00
2023-01-13T23:53:33.464Z,100.00
2023-01-13T23:56:04.052Z,100.00
2023-01-13T23:58:36.858Z,100.00
